Flight Number: EUR2104 Duration: 1:15
Departure: Hamburg Fuhlsbuettel (EDDH) at 08:00 Distance: 324 Nm
Arrival: Munich Int'l (EDDM) at 09:15 Equipment: DHC8

Weather Information
Hamburg-Fuhlsbuettel, Germany (EDDH) 53-38N 010-00E 15M Jan 23, 2018 - 04:50 AM EST / 2018.01.23 0950 UTC
Wind: from the SW (220 degrees) at 9 MPH (8 KT):0
Visibility: 2 mile(s):0
Sky conditions: mostly cloudy Weather: mist Temperature: 42 F (6 C) Dew Point: 41 F (5 C) Relative Humidity: 93% Pressure (altimeter): 30.09 in. Hg (1019 hPa)
ob: EDDH 230950Z 22008KT 4500 BR BKN004 06/05 Q1019 BECMG 6000 BKN005 cycle: 10
Sunrise: 07:23 Sunset: 15:40 (UTC)

Munchen, Germany (EDDM) 48-21N 011-47E Jan 23, 2018 - 04:50 AM EST / 2018.01.23 0950 UTC
Wind: from the WSW (250 degrees) at 9 MPH (8 KT):0
Visibility: greater than 7 mile(s):0
Sky conditions: mostly cloudy Temperature: 39 F (4 C) Dew Point: 33 F (1 C) Relative Humidity: 80% Pressure (altimeter): 30.30 in. Hg (1026 hPa)
ob: EDDM 230950Z 25008KT 9999 FEW025 BKN060 04/01 Q1026 R88/290095 NOSIG cycle: 10
Sunrise: 06:55 Sunset: 15:54 (UTC)

TAF:2018/01/23 06:27 TAF EDDM 230500Z 2306/2412 27009KT 9999 BKN040 BECMG 2314/2316 21003KT

Previous Pireps for this route
Date Aircraft Flight time Fuel used Landing rate On time
2012-08-12DHC81.1315660Yes
2014-12-24DHC81.327522-162No
2017-01-10B73701.247868-452Charter
(pireps marked green are flown by you)

Route map